sensor_id;sensor_type;location;lat;lon;timestamp;P1;durP1;ratioP1;P2;durP2;ratioP2
36575;SDS011;45700;50.930;5.168;2023-05-03T00:00:05;5.53;;;2.58;;
36575;SDS011;45700;50.930;5.168;2023-05-03T00:04:07;5.13;;;2.80;;
36575;SDS011;45700;50.930;5.168;2023-05-03T00:08:08;5.10;;;2.92;;
36575;SDS011;45700;50.930;5.168;2023-05-03T00:12:09;4.28;;;2.15;;
36575;SDS011;45700;50.930;5.168;2023-05-03T00:16:10;4.93;;;2.67;;
36575;SDS011;45700;50.930;5.168;2023-05-03T00:20:11;6.60;;;3.08;;
36575;SDS011;45700;50.930;5.168;2023-05-03T00:24:12;5.85;;;2.22;;
36575;SDS011;45700;50.930;5.168;2023-05-03T00:28:13;4.07;;;2.05;;
36575;SDS011;45700;50.930;5.168;2023-05-03T00:32:14;8.77;;;2.83;;
36575;SDS011;45700;50.930;5.168;2023-05-03T00:36:15;7.97;;;2.72;;
36575;SDS011;45700;50.930;5.168;2023-05-03T00:40:16;6.82;;;2.60;;
36575;SDS011;45700;50.930;5.168;2023-05-03T00:44:17;7.30;;;2.58;;
36575;SDS011;45700;50.930;5.168;2023-05-03T00:48:18;8.43;;;3.05;;
36575;SDS011;45700;50.930;5.168;2023-05-03T00:52:19;5.32;;;2.92;;
36575;SDS011;45700;50.930;5.168;2023-05-03T00:56:20;6.10;;;2.53;;
36575;SDS011;45700;50.930;5.168;2023-05-03T01:00:22;5.53;;;2.95;;
36575;SDS011;45700;50.930;5.168;2023-05-03T01:04:24;8.30;;;2.95;;
36575;SDS011;45700;50.930;5.168;2023-05-03T01:16:30;5.05;;;2.80;;
36575;SDS011;45700;50.930;5.168;2023-05-03T01:20:32;6.88;;;3.05;;
36575;SDS011;45700;50.930;5.168;2023-05-03T01:24:34;5.20;;;2.40;;
36575;SDS011;45700;50.930;5.168;2023-05-03T01:28:37;6.85;;;2.45;;
36575;SDS011;45700;50.930;5.168;2023-05-03T01:36:39;5.57;;;2.50;;
36575;SDS011;45700;50.930;5.168;2023-05-03T01:40:46;9.93;;;2.63;;
36575;SDS011;45700;50.930;5.168;2023-05-03T01:44:48;5.97;;;2.63;;
36575;SDS011;45700;50.930;5.168;2023-05-03T01:48:49;8.95;;;3.40;;
36575;SDS011;45700;50.930;5.168;2023-05-03T01:52:50;5.88;;;2.67;;
36575;SDS011;45700;50.930;5.168;2023-05-03T01:56:52;4.57;;;2.65;;
36575;SDS011;45700;50.930;5.168;2023-05-03T02:00:53;7.47;;;2.90;;
36575;SDS011;45700;50.930;5.168;2023-05-03T02:04:54;9.88;;;3.17;;
36575;SDS011;45700;50.930;5.168;2023-05-03T02:08:55;10.77;;;3.60;;
36575;SDS011;45700;50.930;5.168;2023-05-03T02:12:56;10.02;;;3.38;;
36575;SDS011;45700;50.930;5.168;2023-05-03T02:16:57;6.20;;;3.15;;
36575;SDS011;45700;50.930;5.168;2023-05-03T02:20:59;6.82;;;3.20;;
36575;SDS011;45700;50.930;5.168;2023-05-03T02:25:00;7.53;;;3.83;;
36575;SDS011;45700;50.930;5.168;2023-05-03T02:29:01;6.63;;;2.60;;
36575;SDS011;45700;50.930;5.168;2023-05-03T02:33:02;11.32;;;4.93;;
36575;SDS011;45700;50.930;5.168;2023-05-03T02:37:03;6.03;;;2.90;;
36575;SDS011;45700;50.930;5.168;2023-05-03T02:41:05;11.07;;;3.05;;
36575;SDS011;45700;50.930;5.168;2023-05-03T02:45:06;13.93;;;4.13;;
36575;SDS011;45700;50.930;5.168;2023-05-03T02:49:07;8.70;;;3.65;;
36575;SDS011;45700;50.930;5.168;2023-05-03T02:53:08;9.00;;;3.80;;
36575;SDS011;45700;50.930;5.168;2023-05-03T02:57:10;11.55;;;3.70;;
36575;SDS011;45700;50.930;5.168;2023-05-03T03:01:11;10.32;;;3.95;;
36575;SDS011;45700;50.930;5.168;2023-05-03T03:05:12;9.05;;;3.90;;
36575;SDS011;45700;50.930;5.168;2023-05-03T03:09:13;10.77;;;3.08;;
36575;SDS011;45700;50.930;5.168;2023-05-03T03:13:14;10.73;;;3.28;;
36575;SDS011;45700;50.930;5.168;2023-05-03T03:17:15;13.70;;;4.18;;
36575;SDS011;45700;50.930;5.168;2023-05-03T03:21:16;16.00;;;4.00;;
36575;SDS011;45700;50.930;5.168;2023-05-03T03:25:18;8.80;;;3.97;;
36575;SDS011;45700;50.930;5.168;2023-05-03T03:29:20;7.18;;;3.92;;
36575;SDS011;45700;50.930;5.168;2023-05-03T03:33:21;7.30;;;3.47;;
36575;SDS011;45700;50.930;5.168;2023-05-03T03:37:22;8.10;;;3.55;;
36575;SDS011;45700;50.930;5.168;2023-05-03T03:41:23;10.50;;;4.38;;
36575;SDS011;45700;50.930;5.168;2023-05-03T03:45:24;10.90;;;4.22;;
36575;SDS011;45700;50.930;5.168;2023-05-03T03:49:25;9.05;;;4.15;;
36575;SDS011;45700;50.930;5.168;2023-05-03T03:53:26;11.00;;;4.30;;
36575;SDS011;45700;50.930;5.168;2023-05-03T03:57:27;11.10;;;4.68;;
36575;SDS011;45700;50.930;5.168;2023-05-03T04:01:30;11.45;;;4.60;;
36575;SDS011;45700;50.930;5.168;2023-05-03T04:05:31;13.23;;;5.30;;
36575;SDS011;45700;50.930;5.168;2023-05-03T04:09:32;14.25;;;5.07;;
36575;SDS011;45700;50.930;5.168;2023-05-03T04:13:33;13.40;;;4.80;;
36575;SDS011;45700;50.930;5.168;2023-05-03T04:17:34;10.95;;;4.70;;
36575;SDS011;45700;50.930;5.168;2023-05-03T04:21:35;12.15;;;4.93;;
36575;SDS011;45700;50.930;5.168;2023-05-03T04:25:36;10.93;;;4.82;;
36575;SDS011;45700;50.930;5.168;2023-05-03T04:29:37;10.10;;;4.32;;
36575;SDS011;45700;50.930;5.168;2023-05-03T04:33:38;12.45;;;5.43;;
36575;SDS011;45700;50.930;5.168;2023-05-03T04:37:40;9.27;;;4.75;;
36575;SDS011;45700;50.930;5.168;2023-05-03T04:41:41;11.48;;;5.15;;
36575;SDS011;45700;50.930;5.168;2023-05-03T04:45:42;8.80;;;4.35;;
36575;SDS011;45700;50.930;5.168;2023-05-03T04:49:43;14.00;;;5.25;;
36575;SDS011;45700;50.930;5.168;2023-05-03T04:53:45;10.93;;;4.70;;
36575;SDS011;45700;50.930;5.168;2023-05-03T04:57:46;15.88;;;5.43;;
36575;SDS011;45700;50.930;5.168;2023-05-03T05:01:47;11.93;;;5.05;;
36575;SDS011;45700;50.930;5.168;2023-05-03T05:05:48;11.45;;;5.50;;
36575;SDS011;45700;50.930;5.168;2023-05-03T05:09:50;12.88;;;5.18;;
36575;SDS011;45700;50.930;5.168;2023-05-03T05:13:51;14.32;;;5.53;;
36575;SDS011;45700;50.930;5.168;2023-05-03T05:17:52;13.90;;;5.50;;
36575;SDS011;45700;50.930;5.168;2023-05-03T05:21:53;12.90;;;5.95;;
36575;SDS011;45700;50.930;5.168;2023-05-03T05:25:54;14.70;;;5.65;;
36575;SDS011;45700;50.930;5.168;2023-05-03T05:29:59;15.50;;;5.80;;
36575;SDS011;45700;50.930;5.168;2023-05-03T05:34:00;15.55;;;6.18;;
36575;SDS011;45700;50.930;5.168;2023-05-03T05:38:02;13.50;;;5.72;;
36575;SDS011;45700;50.930;5.168;2023-05-03T05:42:08;12.82;;;5.80;;
36575;SDS011;45700;50.930;5.168;2023-05-03T05:46:09;16.60;;;6.22;;
36575;SDS011;45700;50.930;5.168;2023-05-03T05:50:10;13.40;;;5.05;;
36575;SDS011;45700;50.930;5.168;2023-05-03T05:54:11;12.70;;;5.60;;
36575;SDS011;45700;50.930;5.168;2023-05-03T05:58:12;12.38;;;5.40;;
36575;SDS011;45700;50.930;5.168;2023-05-03T06:02:14;12.32;;;5.60;;
36575;SDS011;45700;50.930;5.168;2023-05-03T06:06:22;12.18;;;5.55;;
36575;SDS011;45700;50.930;5.168;2023-05-03T06:10:23;11.38;;;5.50;;
36575;SDS011;45700;50.930;5.168;2023-05-03T06:14:24;14.20;;;5.78;;
36575;SDS011;45700;50.930;5.168;2023-05-03T06:18:25;10.98;;;5.85;;
36575;SDS011;45700;50.930;5.168;2023-05-03T06:22:26;13.75;;;5.63;;
36575;SDS011;45700;50.930;5.168;2023-05-03T06:26:27;11.15;;;5.55;;
36575;SDS011;45700;50.930;5.168;2023-05-03T06:30:28;10.93;;;5.47;;
36575;SDS011;45700;50.930;5.168;2023-05-03T06:34:30;15.27;;;5.57;;
36575;SDS011;45700;50.930;5.168;2023-05-03T06:38:31;9.43;;;4.47;;
36575;SDS011;45700;50.930;5.168;2023-05-03T06:42:32;10.05;;;4.32;;
36575;SDS011;45700;50.930;5.168;2023-05-03T06:46:33;10.05;;;4.53;;
36575;SDS011;45700;50.930;5.168;2023-05-03T06:50:34;10.10;;;4.68;;
36575;SDS011;45700;50.930;5.168;2023-05-03T06:54:35;15.40;;;5.07;;
36575;SDS011;45700;50.930;5.168;2023-05-03T06:58:36;9.57;;;4.88;;
36575;SDS011;45700;50.930;5.168;2023-05-03T07:02:37;12.43;;;5.43;;
36575;SDS011;45700;50.930;5.168;2023-05-03T07:06:38;14.07;;;5.20;;
36575;SDS011;45700;50.930;5.168;2023-05-03T07:10:39;14.95;;;5.88;;
36575;SDS011;45700;50.930;5.168;2023-05-03T07:14:40;13.40;;;5.00;;
36575;SDS011;45700;50.930;5.168;2023-05-03T07:18:41;11.70;;;5.03;;
36575;SDS011;45700;50.930;5.168;2023-05-03T07:22:43;10.50;;;4.93;;
36575;SDS011;45700;50.930;5.168;2023-05-03T07:26:44;18.52;;;5.70;;
36575;SDS011;45700;50.930;5.168;2023-05-03T07:30:45;10.93;;;5.47;;
36575;SDS011;45700;50.930;5.168;2023-05-03T07:34:47;15.70;;;5.93;;
36575;SDS011;45700;50.930;5.168;2023-05-03T07:38:48;14.55;;;5.00;;
36575;SDS011;45700;50.930;5.168;2023-05-03T07:42:49;12.93;;;5.75;;
36575;SDS011;45700;50.930;5.168;2023-05-03T07:46:50;10.93;;;5.15;;
36575;SDS011;45700;50.930;5.168;2023-05-03T07:50:51;15.52;;;5.53;;
36575;SDS011;45700;50.930;5.168;2023-05-03T07:54:52;10.30;;;4.85;;
36575;SDS011;45700;50.930;5.168;2023-05-03T07:58:53;17.63;;;5.63;;
36575;SDS011;45700;50.930;5.168;2023-05-03T08:02:54;16.15;;;5.30;;
36575;SDS011;45700;50.930;5.168;2023-05-03T08:06:55;14.32;;;5.80;;
36575;SDS011;45700;50.930;5.168;2023-05-03T08:10:56;14.05;;;6.43;;
36575;SDS011;45700;50.930;5.168;2023-05-03T08:14:57;14.05;;;5.72;;
36575;SDS011;45700;50.930;5.168;2023-05-03T08:18:58;11.85;;;5.60;;
36575;SDS011;45700;50.930;5.168;2023-05-03T08:22:59;14.48;;;5.90;;
36575;SDS011;45700;50.930;5.168;2023-05-03T08:27:00;17.20;;;6.57;;
36575;SDS011;45700;50.930;5.168;2023-05-03T08:31:01;15.20;;;6.07;;
36575;SDS011;45700;50.930;5.168;2023-05-03T08:35:03;19.23;;;7.00;;
36575;SDS011;45700;50.930;5.168;2023-05-03T08:39:06;12.50;;;6.38;;
36575;SDS011;45700;50.930;5.168;2023-05-03T08:43:08;10.00;;;5.38;;
36575;SDS011;45700;50.930;5.168;2023-05-03T08:47:09;14.57;;;5.38;;
36575;SDS011;45700;50.930;5.168;2023-05-03T08:51:11;16.20;;;5.38;;
36575;SDS011;45700;50.930;5.168;2023-05-03T08:55:13;15.93;;;5.00;;
36575;SDS011;45700;50.930;5.168;2023-05-03T08:59:14;13.13;;;5.20;;
36575;SDS011;45700;50.930;5.168;2023-05-03T09:03:16;17.17;;;5.55;;
36575;SDS011;45700;50.930;5.168;2023-05-03T09:07:17;13.88;;;5.43;;
36575;SDS011;45700;50.930;5.168;2023-05-03T09:11:30;14.15;;;5.22;;
36575;SDS011;45700;50.930;5.168;2023-05-03T09:15:31;13.40;;;5.57;;
36575;SDS011;45700;50.930;5.168;2023-05-03T09:19:46;9.80;;;4.63;;
36575;SDS011;45700;50.930;5.168;2023-05-03T09:23:48;8.10;;;4.45;;
36575;SDS011;45700;50.930;5.168;2023-05-03T09:27:59;9.50;;;4.47;;
36575;SDS011;45700;50.930;5.168;2023-05-03T09:32:01;13.50;;;5.47;;
36575;SDS011;45700;50.930;5.168;2023-05-03T09:36:04;12.30;;;5.25;;
36575;SDS011;45700;50.930;5.168;2023-05-03T09:40:05;11.57;;;4.38;;
36575;SDS011;45700;50.930;5.168;2023-05-03T09:44:07;11.75;;;5.03;;
36575;SDS011;45700;50.930;5.168;2023-05-03T09:48:08;11.60;;;4.80;;
36575;SDS011;45700;50.930;5.168;2023-05-03T09:52:09;11.35;;;4.30;;
36575;SDS011;45700;50.930;5.168;2023-05-03T09:56:10;13.05;;;5.55;;
36575;SDS011;45700;50.930;5.168;2023-05-03T10:00:12;9.20;;;4.57;;
36575;SDS011;45700;50.930;5.168;2023-05-03T10:04:16;15.45;;;5.10;;
36575;SDS011;45700;50.930;5.168;2023-05-03T10:08:29;10.80;;;5.18;;
36575;SDS011;45700;50.930;5.168;2023-05-03T10:12:33;17.35;;;5.30;;
36575;SDS011;45700;50.930;5.168;2023-05-03T10:16:35;11.60;;;4.75;;
36575;SDS011;45700;50.930;5.168;2023-05-03T10:20:42;14.45;;;4.75;;
36575;SDS011;45700;50.930;5.168;2023-05-03T10:29:01;9.32;;;4.28;;
36575;SDS011;45700;50.930;5.168;2023-05-03T10:37:13;10.65;;;4.50;;
36575;SDS011;45700;50.930;5.168;2023-05-03T10:41:21;10.02;;;4.75;;
36575;SDS011;45700;50.930;5.168;2023-05-03T10:45:24;11.18;;;5.03;;
36575;SDS011;45700;50.930;5.168;2023-05-03T10:49:25;12.85;;;5.00;;
36575;SDS011;45700;50.930;5.168;2023-05-03T10:53:34;9.77;;;5.25;;
36575;SDS011;45700;50.930;5.168;2023-05-03T10:57:39;11.35;;;5.03;;
36575;SDS011;45700;50.930;5.168;2023-05-03T11:01:44;11.68;;;4.80;;
36575;SDS011;45700;50.930;5.168;2023-05-03T11:05:48;8.95;;;4.43;;
36575;SDS011;45700;50.930;5.168;2023-05-03T11:09:49;9.15;;;4.47;;
36575;SDS011;45700;50.930;5.168;2023-05-03T11:13:51;7.70;;;4.10;;
36575;SDS011;45700;50.930;5.168;2023-05-03T11:17:53;9.90;;;4.50;;
36575;SDS011;45700;50.930;5.168;2023-05-03T11:21:56;8.40;;;4.25;;
36575;SDS011;45700;50.930;5.168;2023-05-03T11:25:57;14.82;;;5.22;;
36575;SDS011;45700;50.930;5.168;2023-05-03T11:29:58;8.48;;;4.18;;
36575;SDS011;45700;50.930;5.168;2023-05-03T11:33:59;8.65;;;4.82;;
36575;SDS011;45700;50.930;5.168;2023-05-03T11:38:00;8.02;;;4.10;;
36575;SDS011;45700;50.930;5.168;2023-05-03T11:42:02;10.77;;;4.57;;
36575;SDS011;45700;50.930;5.168;2023-05-03T11:46:03;14.30;;;4.65;;
36575;SDS011;45700;50.930;5.168;2023-05-03T11:50:04;10.45;;;4.43;;
36575;SDS011;45700;50.930;5.168;2023-05-03T11:54:05;12.90;;;4.47;;
36575;SDS011;45700;50.930;5.168;2023-05-03T11:58:07;8.32;;;4.30;;
36575;SDS011;45700;50.930;5.168;2023-05-03T12:02:09;8.32;;;4.07;;
36575;SDS011;45700;50.930;5.168;2023-05-03T12:06:11;10.35;;;4.35;;
36575;SDS011;45700;50.930;5.168;2023-05-03T12:10:15;13.52;;;4.97;;
36575;SDS011;45700;50.930;5.168;2023-05-03T12:14:20;10.45;;;3.83;;
36575;SDS011;45700;50.930;5.168;2023-05-03T12:18:21;9.57;;;4.45;;
36575;SDS011;45700;50.930;5.168;2023-05-03T12:22:22;6.97;;;3.75;;
36575;SDS011;45700;50.930;5.168;2023-05-03T12:26:24;11.25;;;4.07;;
36575;SDS011;45700;50.930;5.168;2023-05-03T12:30:26;11.77;;;4.72;;
36575;SDS011;45700;50.930;5.168;2023-05-03T12:34:27;10.48;;;4.30;;
36575;SDS011;45700;50.930;5.168;2023-05-03T12:38:28;10.57;;;4.57;;
36575;SDS011;45700;50.930;5.168;2023-05-03T12:42:29;11.15;;;4.45;;
36575;SDS011;45700;50.930;5.168;2023-05-03T12:46:30;9.77;;;4.32;;
36575;SDS011;45700;50.930;5.168;2023-05-03T12:50:31;11.25;;;4.47;;
36575;SDS011;45700;50.930;5.168;2023-05-03T12:54:33;7.80;;;4.10;;
36575;SDS011;45700;50.930;5.168;2023-05-03T12:58:34;10.73;;;4.72;;
36575;SDS011;45700;50.930;5.168;2023-05-03T13:02:35;8.07;;;3.85;;
36575;SDS011;45700;50.930;5.168;2023-05-03T13:06:36;8.15;;;4.07;;
36575;SDS011;45700;50.930;5.168;2023-05-03T13:10:37;9.10;;;3.92;;
36575;SDS011;45700;50.930;5.168;2023-05-03T13:14:40;7.90;;;3.85;;
36575;SDS011;45700;50.930;5.168;2023-05-03T13:18:41;10.75;;;4.68;;
36575;SDS011;45700;50.930;5.168;2023-05-03T13:22:43;11.45;;;4.00;;
36575;SDS011;45700;50.930;5.168;2023-05-03T13:26:45;9.20;;;3.85;;
36575;SDS011;45700;50.930;5.168;2023-05-03T13:30:46;9.98;;;4.00;;
36575;SDS011;45700;50.930;5.168;2023-05-03T13:34:47;7.85;;;4.10;;
36575;SDS011;45700;50.930;5.168;2023-05-03T13:38:48;12.65;;;4.43;;
36575;SDS011;45700;50.930;5.168;2023-05-03T13:42:49;11.27;;;3.95;;
36575;SDS011;45700;50.930;5.168;2023-05-03T13:46:50;14.00;;;4.68;;
36575;SDS011;45700;50.930;5.168;2023-05-03T13:50:51;13.43;;;4.15;;
36575;SDS011;45700;50.930;5.168;2023-05-03T13:54:53;8.45;;;4.25;;
36575;SDS011;45700;50.930;5.168;2023-05-03T13:58:54;11.77;;;4.10;;
36575;SDS011;45700;50.930;5.168;2023-05-03T14:02:56;12.27;;;4.10;;
36575;SDS011;45700;50.930;5.168;2023-05-03T14:06:57;8.80;;;4.18;;
36575;SDS011;45700;50.930;5.168;2023-05-03T14:11:01;9.02;;;4.53;;
36575;SDS011;45700;50.930;5.168;2023-05-03T14:15:03;8.02;;;3.67;;
36575;SDS011;45700;50.930;5.168;2023-05-03T14:19:04;7.28;;;3.28;;
36575;SDS011;45700;50.930;5.168;2023-05-03T14:23:05;11.52;;;3.92;;
36575;SDS011;45700;50.930;5.168;2023-05-03T14:27:06;9.82;;;4.80;;
36575;SDS011;45700;50.930;5.168;2023-05-03T14:31:07;12.25;;;4.15;;
36575;SDS011;45700;50.930;5.168;2023-05-03T14:35:08;9.75;;;3.90;;
36575;SDS011;45700;50.930;5.168;2023-05-03T14:39:10;9.77;;;3.75;;
36575;SDS011;45700;50.930;5.168;2023-05-03T14:43:13;10.52;;;4.07;;
36575;SDS011;45700;50.930;5.168;2023-05-03T14:47:14;8.65;;;3.70;;
36575;SDS011;45700;50.930;5.168;2023-05-03T14:51:15;7.05;;;3.28;;
36575;SDS011;45700;50.930;5.168;2023-05-03T14:55:17;9.38;;;4.10;;
36575;SDS011;45700;50.930;5.168;2023-05-03T14:59:18;10.27;;;3.88;;
36575;SDS011;45700;50.930;5.168;2023-05-03T15:03:19;7.70;;;3.58;;
36575;SDS011;45700;50.930;5.168;2023-05-03T15:07:20;9.07;;;3.80;;
36575;SDS011;45700;50.930;5.168;2023-05-03T15:11:21;6.78;;;3.60;;
36575;SDS011;45700;50.930;5.168;2023-05-03T15:15:22;8.95;;;3.65;;
36575;SDS011;45700;50.930;5.168;2023-05-03T15:19:23;7.97;;;3.58;;
36575;SDS011;45700;50.930;5.168;2023-05-03T15:23:25;7.70;;;3.40;;
36575;SDS011;45700;50.930;5.168;2023-05-03T15:27:26;20.75;;;4.03;;
36575;SDS011;45700;50.930;5.168;2023-05-03T15:31:27;7.70;;;3.67;;
36575;SDS011;45700;50.930;5.168;2023-05-03T15:35:28;9.27;;;3.83;;
36575;SDS011;45700;50.930;5.168;2023-05-03T15:39:30;16.63;;;3.78;;
36575;SDS011;45700;50.930;5.168;2023-05-03T15:43:31;6.93;;;3.35;;
36575;SDS011;45700;50.930;5.168;2023-05-03T15:47:32;8.93;;;3.30;;
36575;SDS011;45700;50.930;5.168;2023-05-03T15:51:33;7.70;;;3.22;;
36575;SDS011;45700;50.930;5.168;2023-05-03T15:55:35;8.57;;;3.40;;
36575;SDS011;45700;50.930;5.168;2023-05-03T15:59:37;10.88;;;4.13;;
36575;SDS011;45700;50.930;5.168;2023-05-03T16:03:38;10.25;;;3.70;;
36575;SDS011;45700;50.930;5.168;2023-05-03T16:07:39;13.00;;;3.85;;
36575;SDS011;45700;50.930;5.168;2023-05-03T16:11:40;8.07;;;3.70;;
36575;SDS011;45700;50.930;5.168;2023-05-03T16:15:41;7.28;;;3.35;;
36575;SDS011;45700;50.930;5.168;2023-05-03T16:19:42;8.30;;;3.58;;
36575;SDS011;45700;50.930;5.168;2023-05-03T16:23:43;10.27;;;3.85;;
36575;SDS011;45700;50.930;5.168;2023-05-03T16:27:45;6.40;;;3.55;;
36575;SDS011;45700;50.930;5.168;2023-05-03T16:31:46;8.77;;;3.30;;
36575;SDS011;45700;50.930;5.168;2023-05-03T16:35:48;9.98;;;3.38;;
36575;SDS011;45700;50.930;5.168;2023-05-03T16:39:49;8.23;;;3.75;;
36575;SDS011;45700;50.930;5.168;2023-05-03T16:43:50;6.68;;;3.47;;
36575;SDS011;45700;50.930;5.168;2023-05-03T16:47:51;10.57;;;3.97;;
36575;SDS011;45700;50.930;5.168;2023-05-03T16:51:52;10.45;;;3.20;;
36575;SDS011;45700;50.930;5.168;2023-05-03T16:55:54;6.78;;;2.90;;
36575;SDS011;45700;50.930;5.168;2023-05-03T16:59:55;7.85;;;3.75;;
36575;SDS011;45700;50.930;5.168;2023-05-03T17:03:56;9.32;;;3.67;;
36575;SDS011;45700;50.930;5.168;2023-05-03T17:07:57;8.00;;;3.42;;
36575;SDS011;45700;50.930;5.168;2023-05-03T17:11:58;6.15;;;3.28;;
36575;SDS011;45700;50.930;5.168;2023-05-03T17:16:04;6.38;;;3.17;;
36575;SDS011;45700;50.930;5.168;2023-05-03T17:20:07;12.75;;;3.60;;
36575;SDS011;45700;50.930;5.168;2023-05-03T17:24:09;7.15;;;3.42;;
36575;SDS011;45700;50.930;5.168;2023-05-03T17:28:10;7.63;;;2.92;;
36575;SDS011;45700;50.930;5.168;2023-05-03T17:32:11;6.07;;;2.88;;
36575;SDS011;45700;50.930;5.168;2023-05-03T17:36:13;11.85;;;3.55;;
36575;SDS011;45700;50.930;5.168;2023-05-03T17:40:14;7.57;;;3.50;;
36575;SDS011;45700;50.930;5.168;2023-05-03T17:44:15;7.03;;;3.58;;
36575;SDS011;45700;50.930;5.168;2023-05-03T17:48:16;8.75;;;3.33;;
36575;SDS011;45700;50.930;5.168;2023-05-03T17:52:17;8.63;;;3.40;;
36575;SDS011;45700;50.930;5.168;2023-05-03T17:56:18;5.60;;;3.25;;
36575;SDS011;45700;50.930;5.168;2023-05-03T18:00:20;9.10;;;3.53;;
36575;SDS011;45700;50.930;5.168;2023-05-03T18:04:21;8.82;;;3.58;;
36575;SDS011;45700;50.930;5.168;2023-05-03T18:08:22;5.75;;;3.17;;
36575;SDS011;45700;50.930;5.168;2023-05-03T18:12:24;8.35;;;3.08;;
36575;SDS011;45700;50.930;5.168;2023-05-03T18:16:25;7.38;;;3.10;;
36575;SDS011;45700;50.930;5.168;2023-05-03T18:20:26;7.88;;;3.50;;
36575;SDS011;45700;50.930;5.168;2023-05-03T18:24:27;5.53;;;2.88;;
36575;SDS011;45700;50.930;5.168;2023-05-03T18:28:28;5.95;;;3.33;;
36575;SDS011;45700;50.930;5.168;2023-05-03T18:32:29;9.88;;;3.47;;
36575;SDS011;45700;50.930;5.168;2023-05-03T18:36:30;7.32;;;3.13;;
36575;SDS011;45700;50.930;5.168;2023-05-03T18:40:31;6.80;;;3.28;;
36575;SDS011;45700;50.930;5.168;2023-05-03T18:44:32;7.88;;;4.05;;
36575;SDS011;45700;50.930;5.168;2023-05-03T18:48:33;6.50;;;3.08;;
36575;SDS011;45700;50.930;5.168;2023-05-03T18:52:34;7.13;;;2.95;;
36575;SDS011;45700;50.930;5.168;2023-05-03T18:56:35;7.22;;;3.72;;
36575;SDS011;45700;50.930;5.168;2023-05-03T19:00:36;9.98;;;3.53;;
36575;SDS011;45700;50.930;5.168;2023-05-03T19:04:37;7.40;;;3.25;;
36575;SDS011;45700;50.930;5.168;2023-05-03T19:08:39;10.27;;;3.72;;
36575;SDS011;45700;50.930;5.168;2023-05-03T19:12:42;8.38;;;3.83;;
36575;SDS011;45700;50.930;5.168;2023-05-03T19:16:43;8.73;;;3.92;;
36575;SDS011;45700;50.930;5.168;2023-05-03T19:20:44;12.48;;;3.67;;
36575;SDS011;45700;50.930;5.168;2023-05-03T19:24:45;7.40;;;3.58;;
36575;SDS011;45700;50.930;5.168;2023-05-03T19:28:46;10.40;;;4.18;;
36575;SDS011;45700;50.930;5.168;2023-05-03T19:32:47;9.23;;;3.85;;
36575;SDS011;45700;50.930;5.168;2023-05-03T19:36:48;7.32;;;3.47;;
36575;SDS011;45700;50.930;5.168;2023-05-03T19:40:56;11.13;;;3.42;;
36575;SDS011;45700;50.930;5.168;2023-05-03T19:44:57;8.82;;;3.67;;
36575;SDS011;45700;50.930;5.168;2023-05-03T19:48:59;8.63;;;3.88;;
36575;SDS011;45700;50.930;5.168;2023-05-03T19:53:00;8.05;;;4.20;;
36575;SDS011;45700;50.930;5.168;2023-05-03T19:57:02;7.00;;;3.92;;
36575;SDS011;45700;50.930;5.168;2023-05-03T20:01:06;11.05;;;3.92;;
36575;SDS011;45700;50.930;5.168;2023-05-03T20:05:07;12.68;;;4.85;;
36575;SDS011;45700;50.930;5.168;2023-05-03T20:09:08;10.88;;;4.18;;
36575;SDS011;45700;50.930;5.168;2023-05-03T20:13:10;13.75;;;4.05;;
36575;SDS011;45700;50.930;5.168;2023-05-03T20:17:11;11.35;;;4.18;;
36575;SDS011;45700;50.930;5.168;2023-05-03T20:21:12;8.20;;;4.20;;
36575;SDS011;45700;50.930;5.168;2023-05-03T20:25:13;9.10;;;4.25;;
36575;SDS011;45700;50.930;5.168;2023-05-03T20:29:15;7.00;;;3.50;;
36575;SDS011;45700;50.930;5.168;2023-05-03T20:33:16;7.53;;;4.05;;
36575;SDS011;45700;50.930;5.168;2023-05-03T20:37:17;9.65;;;4.10;;
36575;SDS011;45700;50.930;5.168;2023-05-03T20:41:18;11.00;;;4.80;;
36575;SDS011;45700;50.930;5.168;2023-05-03T20:45:19;8.10;;;3.78;;
36575;SDS011;45700;50.930;5.168;2023-05-03T20:49:21;14.80;;;4.22;;
36575;SDS011;45700;50.930;5.168;2023-05-03T20:53:22;12.55;;;4.03;;
36575;SDS011;45700;50.930;5.168;2023-05-03T20:57:23;14.60;;;4.28;;
36575;SDS011;45700;50.930;5.168;2023-05-03T21:01:24;8.00;;;4.25;;
36575;SDS011;45700;50.930;5.168;2023-05-03T21:05:25;7.35;;;3.95;;
36575;SDS011;45700;50.930;5.168;2023-05-03T21:09:26;12.68;;;3.97;;
36575;SDS011;45700;50.930;5.168;2023-05-03T21:13:27;11.20;;;4.55;;
36575;SDS011;45700;50.930;5.168;2023-05-03T21:17:28;9.23;;;3.70;;
36575;SDS011;45700;50.930;5.168;2023-05-03T21:21:29;8.63;;;4.03;;
36575;SDS011;45700;50.930;5.168;2023-05-03T21:25:30;9.48;;;4.10;;
36575;SDS011;45700;50.930;5.168;2023-05-03T21:29:32;11.27;;;4.20;;
36575;SDS011;45700;50.930;5.168;2023-05-03T21:33:33;8.77;;;3.70;;
36575;SDS011;45700;50.930;5.168;2023-05-03T21:37:34;9.48;;;4.05;;
36575;SDS011;45700;50.930;5.168;2023-05-03T21:41:35;9.68;;;3.83;;
36575;SDS011;45700;50.930;5.168;2023-05-03T21:45:39;8.25;;;4.70;;
36575;SDS011;45700;50.930;5.168;2023-05-03T21:49:42;7.15;;;3.92;;
36575;SDS011;45700;50.930;5.168;2023-05-03T21:53:43;7.25;;;3.10;;
36575;SDS011;45700;50.930;5.168;2023-05-03T21:57:44;13.95;;;4.05;;
36575;SDS011;45700;50.930;5.168;2023-05-03T22:01:45;8.73;;;3.85;;
36575;SDS011;45700;50.930;5.168;2023-05-03T22:05:46;11.70;;;3.90;;
36575;SDS011;45700;50.930;5.168;2023-05-03T22:09:49;7.22;;;4.35;;
36575;SDS011;45700;50.930;5.168;2023-05-03T22:13:50;8.15;;;3.67;;
36575;SDS011;45700;50.930;5.168;2023-05-03T22:17:51;9.38;;;4.03;;
36575;SDS011;45700;50.930;5.168;2023-05-03T22:21:53;8.30;;;4.13;;
36575;SDS011;45700;50.930;5.168;2023-05-03T22:25:54;6.40;;;4.10;;
36575;SDS011;45700;50.930;5.168;2023-05-03T22:29:55;8.75;;;4.30;;
36575;SDS011;45700;50.930;5.168;2023-05-03T22:33:56;9.00;;;4.00;;
36575;SDS011;45700;50.930;5.168;2023-05-03T22:37:57;12.73;;;4.03;;
36575;SDS011;45700;50.930;5.168;2023-05-03T22:41:58;6.88;;;3.40;;
36575;SDS011;45700;50.930;5.168;2023-05-03T22:45:59;7.47;;;3.67;;
36575;SDS011;45700;50.930;5.168;2023-05-03T22:50:01;8.55;;;3.55;;
36575;SDS011;45700;50.930;5.168;2023-05-03T22:54:02;10.57;;;4.03;;
36575;SDS011;45700;50.930;5.168;2023-05-03T22:58:03;8.70;;;3.95;;
36575;SDS011;45700;50.930;5.168;2023-05-03T23:02:04;5.90;;;3.42;;
36575;SDS011;45700;50.930;5.168;2023-05-03T23:06:05;7.93;;;3.30;;
36575;SDS011;45700;50.930;5.168;2023-05-03T23:10:06;8.40;;;3.60;;
36575;SDS011;45700;50.930;5.168;2023-05-03T23:14:08;11.35;;;3.65;;
36575;SDS011;45700;50.930;5.168;2023-05-03T23:18:09;6.18;;;3.58;;
36575;SDS011;45700;50.930;5.168;2023-05-03T23:22:10;8.45;;;3.85;;
36575;SDS011;45700;50.930;5.168;2023-05-03T23:26:11;10.23;;;3.67;;
36575;SDS011;45700;50.930;5.168;2023-05-03T23:30:12;8.38;;;4.28;;
36575;SDS011;45700;50.930;5.168;2023-05-03T23:34:13;12.73;;;4.22;;
36575;SDS011;45700;50.930;5.168;2023-05-03T23:38:14;7.57;;;3.97;;
36575;SDS011;45700;50.930;5.168;2023-05-03T23:42:15;7.00;;;3.80;;
36575;SDS011;45700;50.930;5.168;2023-05-03T23:46:16;6.85;;;3.97;;
36575;SDS011;45700;50.930;5.168;2023-05-03T23:50:17;9.52;;;4.00;;
36575;SDS011;45700;50.930;5.168;2023-05-03T23:54:18;7.72;;;3.90;;
36575;SDS011;45700;50.930;5.168;2023-05-03T23:58:19;9.05;;;3.75;;
